Terminal Aerodrome Forecast
Issued by NWS

Current Version | Previous Version | Text Only | Print | Product List | Glossary On
Versions: 1 2 3 4 5 6 7 8 9 10 11 12 13 14 15
000
FTPA31 PHFO 051059 AAA
TAFHKO
TAF AMD
PHKO 051059Z 0511/0606 VRB05KT P6SM -SHRA SCT025 BKN050 OVC100
      TEMPO 0511/0513 -SHRA BKN015
     FM052000 24008KT P6SM VCSH SCT025 BKN050
     FM060500 VRB05KT P6SM SCT035 BKN070=

USA.gov is the U.S. government's official web portal to all federal, state and local government web resources and services.